Time;durP1;ratioP1;P1;durP2;ratioP2;P2;SDS_P1;SDS_P2;PMS_P1;PMS_P2;Temp;Humidity;BMP_temperature;BMP_pressure;BME280_temperature;BME280_humidity;BME280_pressure;Samples;Min_cycle;Max_cycle;Signal;HPM_P1;HPM_P2
2021/06/07 00:01:29;;;;;;;11.20;10.30;;;19.30;88.40;;;;;;5115651;28;20810;-86
2021/06/07 00:03:56;;;;;;;11.10;10.10;;;19.30;88.60;;;;;;5114908;28;20470;-86
2021/06/07 00:06:22;;;;;;;11.10;9.90;;;19.30;88.80;;;;;;5115863;28;20443;-86
2021/06/07 00:08:50;;;;;;;11.37;10.27;;;19.30;89.00;;;;;;5114499;28;20446;-85
2021/06/07 00:11:17;;;;;;;11.40;10.20;;;19.20;89.10;;;;;;5115080;28;20510;-86
2021/06/07 00:13:44;;;;;;;9.63;8.73;;;19.20;89.10;;;;;;5115469;28;20492;-85
2021/06/07 00:16:11;;;;;;;11.83;10.67;;;19.20;89.20;;;;;;5114970;28;20524;-85
2021/06/07 00:18:38;;;;;;;10.20;9.20;;;19.10;89.10;;;;;;5115220;28;20451;-85
2021/06/07 00:21:08;;;;;;;10.17;9.37;;;19.20;89.40;;;;;;5115126;28;20447;-85
2021/06/07 00:23:34;;;;;;;10.60;9.50;;;19.20;89.40;;;;;;5115132;28;20463;-85
2021/06/07 00:26:03;;;;;;;10.20;9.30;;;19.10;89.40;;;;;;5114942;28;20443;-86
2021/06/07 00:28:29;;;;;;;10.67;9.70;;;19.10;89.50;;;;;;5116014;28;20451;-85
2021/06/07 00:30:55;;;;;;;10.67;9.73;;;19.10;89.50;;;;;;5115358;28;20446;-85
2021/06/07 00:33:22;;;;;;;10.93;9.97;;;19.10;89.50;;;;;;5117077;28;20474;-85
2021/06/07 00:35:49;;;;;;;11.80;10.73;;;19.10;89.40;;;;;;5118893;28;20487;-85
2021/06/07 00:38:15;;;;;;;11.70;10.63;;;19.10;89.40;;;;;;5118992;28;20438;-85
2021/06/07 00:40:42;;;;;;;11.50;10.30;;;19.10;89.30;;;;;;5119069;28;20450;-85
2021/06/07 00:43:09;;;;;;;11.80;10.90;;;19.10;89.30;;;;;;5118849;28;20470;-85
2021/06/07 00:45:37;;;;;;;11.13;10.10;;;19.00;89.00;;;;;;5119143;28;20443;-85
2021/06/07 00:48:06;;;;;;;10.57;9.43;;;19.00;89.10;;;;;;5119474;28;20447;-86
2021/06/07 00:50:40;;;;;;;11.03;9.93;;;19.00;88.90;;;;;;5119016;28;20447;-86
2021/06/07 00:53:09;;;;;;;10.53;9.57;;;19.00;88.90;;;;;;5118959;28;20474;-86
2021/06/07 00:55:38;;;;;;;9.93;9.13;;;18.90;88.70;;;;;;5118348;28;20561;-86
2021/06/07 00:58:06;;;;;;;11.13;10.20;;;18.90;88.60;;;;;;5118905;28;20465;-86
2021/06/07 01:00:35;;;;;;;10.50;9.60;;;18.90;88.50;;;;;;5118756;28;20939;-87
2021/06/07 01:03:02;;;;;;;11.27;10.27;;;18.90;88.40;;;;;;5118929;28;20447;-86
2021/06/07 01:05:29;;;;;;;9.60;8.80;;;18.80;87.80;;;;;;5119260;28;20446;-86
2021/06/07 01:07:55;;;;;;;10.00;9.10;;;18.80;87.50;;;;;;5119322;28;20427;-87
2021/06/07 01:10:26;;;;;;;10.70;9.70;;;18.80;87.40;;;;;;5121163;28;20450;-85
2021/06/07 01:12:53;;;;;;;11.17;10.13;;;18.70;87.30;;;;;;5124589;28;20569;-86
2021/06/07 01:15:20;;;;;;;10.73;9.73;;;18.70;87.20;;;;;;5140631;22;21036;-74
2021/06/07 01:17:48;;;;;;;10.80;9.80;;;18.60;87.30;;;;;;5116948;28;20443;-74
2021/06/07 01:20:17;;;;;;;11.50;10.37;;;18.60;87.50;;;;;;5116835;28;20446;-76
2021/06/07 01:22:46;;;;;;;12.00;10.47;;;18.60;87.70;;;;;;5116792;28;20462;-76
2021/06/07 01:25:20;;;;;;;11.40;10.33;;;18.50;87.80;;;;;;5116839;28;20438;-77
2021/06/07 01:27:46;;;;;;;10.47;9.43;;;18.50;88.20;;;;;;5117134;28;20415;-77
2021/06/07 01:30:17;;;;;;;11.90;10.83;;;18.50;88.40;;;;;;5117207;28;20790;-77
2021/06/07 01:32:43;;;;;;;11.53;10.43;;;18.50;88.60;;;;;;5116720;28;20515;-77
2021/06/07 01:35:12;;;;;;;12.27;11.03;;;18.50;89.10;;;;;;5116527;28;20452;-77
2021/06/07 01:37:40;;;;;;;11.80;10.60;;;18.50;89.50;;;;;;5116530;28;20447;-77
2021/06/07 01:40:10;;;;;;;11.70;10.50;;;18.50;89.80;;;;;;5116476;28;20816;-77
2021/06/07 01:42:36;;;;;;;12.70;11.40;;;18.50;90.00;;;;;;5116325;28;20966;-76
2021/06/07 01:45:04;;;;;;;13.03;11.93;;;18.50;90.10;;;;;;5115887;28;20442;-77
2021/06/07 01:47:31;;;;;;;11.77;10.57;;;18.40;90.10;;;;;;5116300;28;20461;-77
2021/06/07 01:49:57;;;;;;;13.17;11.93;;;18.40;90.20;;;;;;5116003;28;20973;-76
2021/06/07 01:52:23;;;;;;;12.60;11.50;;;18.40;90.30;;;;;;5116222;28;20467;-77
2021/06/07 01:54:49;;;;;;;14.37;13.00;;;18.40;90.30;;;;;;5116192;28;20443;-75
2021/06/07 01:57:18;;;;;;;13.43;12.23;;;18.40;90.40;;;;;;5116097;28;20490;-76
2021/06/07 01:59:44;;;;;;;14.80;13.30;;;18.40;90.40;;;;;;5116071;28;20431;-76
2021/06/07 02:02:10;;;;;;;14.50;13.03;;;18.40;90.60;;;;;;5115737;28;20976;-76
2021/06/07 02:04:36;;;;;;;14.00;12.80;;;18.40;90.60;;;;;;5116043;28;20447;-76
2021/06/07 02:07:04;;;;;;;16.73;12.73;;;18.40;90.70;;;;;;5115965;28;20454;-75
2021/06/07 02:09:30;;;;;;;15.73;14.17;;;18.40;90.80;;;;;;5115930;28;20458;-76
2021/06/07 02:11:56;;;;;;;15.73;14.33;;;18.30;90.70;;;;;;5115856;28;20474;-76
2021/06/07 02:14:24;;;;;;;13.87;12.57;;;18.30;90.80;;;;;;5115869;28;20439;-75
2021/06/07 02:16:50;;;;;;;13.50;12.23;;;18.30;90.90;;;;;;5115385;28;20475;-76
2021/06/07 02:19:16;;;;;;;15.40;13.87;;;18.30;91.00;;;;;;5115768;28;20837;-76
2021/06/07 02:21:42;;;;;;;14.70;13.30;;;18.20;90.90;;;;;;5115641;28;20463;-75
2021/06/07 02:24:10;;;;;;;15.83;14.47;;;18.20;91.00;;;;;;5115365;28;20446;-75
2021/06/07 02:26:37;;;;;;;15.73;14.43;;;18.20;90.90;;;;;;5115689;28;20474;-76
2021/06/07 02:29:07;;;;;;;15.03;13.50;;;18.30;90.90;;;;;;5115534;28;20447;-76
2021/06/07 02:31:35;;;;;;;13.87;12.70;;;18.20;90.90;;;;;;5115409;28;20470;-75
2021/06/07 02:34:04;;;;;;;15.30;14.00;;;18.20;90.80;;;;;;5115453;28;20447;-76
2021/06/07 02:36:33;;;;;;;14.83;13.50;;;18.30;90.70;;;;;;5115058;28;21037;-76
2021/06/07 02:38:59;;;;;;;14.47;13.10;;;18.20;90.50;;;;;;5115336;28;20431;-76
2021/06/07 02:41:27;;;;;;;15.43;14.00;;;18.20;90.40;;;;;;5115245;28;20492;-76
2021/06/07 02:43:53;;;;;;;15.70;14.20;;;18.20;90.30;;;;;;5115267;28;20784;-76
2021/06/07 02:46:21;;;;;;;14.27;12.80;;;18.20;90.10;;;;;;5114989;28;20783;-75
2021/06/07 02:48:49;;;;;;;14.63;13.40;;;18.10;90.00;;;;;;5115151;28;20441;-76
2021/06/07 02:51:16;;;;;;;13.03;11.83;;;18.10;89.80;;;;;;5114970;28;20446;-76
2021/06/07 02:53:43;;;;;;;14.87;13.43;;;18.10;90.00;;;;;;5114760;28;20443;-75
2021/06/07 02:56:10;;;;;;;13.77;12.43;;;18.10;89.50;;;;;;5114177;28;20482;-76
2021/06/07 02:58:37;;;;;;;13.97;12.73;;;18.00;89.30;;;;;;5114978;28;20443;-76
2021/06/07 03:01:06;;;;;;;13.77;12.57;;;18.00;89.20;;;;;;5114999;28;20451;-76
2021/06/07 03:03:33;;;;;;;14.47;13.17;;;18.00;89.30;;;;;;5114823;28;20512;-76
2021/06/07 03:06:00;;;;;;;13.67;12.47;;;18.00;89.10;;;;;;5114802;28;20435;-76
2021/06/07 03:08:29;;;;;;;14.80;13.40;;;18.00;89.10;;;;;;5114768;28;20443;-76
2021/06/07 03:10:59;;;;;;;15.37;13.57;;;17.90;88.90;;;;;;5114731;28;20443;-76
2021/06/07 03:13:26;;;;;;;14.53;13.23;;;17.90;88.80;;;;;;5114628;28;20834;-76
2021/06/07 03:15:54;;;;;;;14.67;13.37;;;17.90;88.70;;;;;;5114376;28;20885;-76
2021/06/07 03:18:21;;;;;;;15.90;14.30;;;17.90;88.70;;;;;;5114284;28;20443;-75
2021/06/07 03:20:48;;;;;;;15.80;14.50;;;17.80;88.40;;;;;;5114590;28;20443;-76
2021/06/07 03:23:18;;;;;;;16.30;14.80;;;17.80;88.30;;;;;;5114430;28;20462;-76
2021/06/07 03:25:45;;;;;;;15.60;14.20;;;17.80;88.20;;;;;;5114446;28;20436;-76
2021/06/07 03:28:14;;;;;;;15.77;14.47;;;17.80;88.20;;;;;;5114130;28;20962;-76
2021/06/07 03:30:41;;;;;;;15.37;14.00;;;17.70;87.90;;;;;;5114359;28;20439;-75
2021/06/07 03:33:09;;;;;;;15.63;14.03;;;17.70;88.00;;;;;;5114236;28;20463;-76
2021/06/07 03:35:39;;;;;;;16.87;15.37;;;17.70;88.00;;;;;;5113916;28;20447;-75
2021/06/07 03:38:06;;;;;;;16.63;15.03;;;17.70;88.00;;;;;;5114226;28;20498;-75
2021/06/07 03:40:37;;;;;;;15.53;14.20;;;17.60;88.00;;;;;;5113922;28;20944;-75
2021/06/07 03:43:05;;;;;;;14.53;13.17;;;17.60;88.00;;;;;;5114214;28;20553;-75
2021/06/07 03:45:31;;;;;;;15.87;14.40;;;17.60;88.10;;;;;;5114139;28;20469;-75
2021/06/07 03:47:57;;;;;;;16.60;14.90;;;17.60;88.00;;;;;;5114100;28;20451;-75
2021/06/07 03:50:26;;;;;;;15.27;13.87;;;17.60;88.30;;;;;;5114037;28;20458;-75
2021/06/07 03:52:52;;;;;;;15.77;14.30;;;17.60;88.40;;;;;;5114031;28;20465;-75
2021/06/07 03:55:22;;;;;;;15.63;14.13;;;17.60;88.40;;;;;;5114012;28;20454;-75
2021/06/07 03:57:50;;;;;;;16.90;15.30;;;17.50;88.30;;;;;;5113873;28;20485;-75
2021/06/07 04:00:20;;;;;;;16.17;14.57;;;17.60;88.30;;;;;;5113675;28;20935;-76
2021/06/07 04:02:46;;;;;;;14.73;13.33;;;17.50;88.10;;;;;;5113808;28;20462;-75
2021/06/07 04:05:14;;;;;;;14.70;13.40;;;17.50;88.00;;;;;;5113947;28;20448;-75
2021/06/07 04:07:40;;;;;;;15.57;14.17;;;17.50;88.00;;;;;;5119028;28;20439;-75
2021/06/07 04:10:09;;;;;;;15.10;13.67;;;17.50;88.00;;;;;;5120749;28;20446;-75
2021/06/07 04:12:36;;;;;;;15.40;13.90;;;17.50;88.10;;;;;;5120700;28;20519;-75
2021/06/07 04:15:06;;;;;;;15.77;14.30;;;17.50;88.30;;;;;;5120505;28;20465;-75
2021/06/07 04:17:32;;;;;;;18.27;16.67;;;17.50;88.70;;;;;;5120591;28;20560;-75
2021/06/07 04:19:58;;;;;;;18.07;16.37;;;17.50;89.10;;;;;;5120645;28;20438;-75
2021/06/07 04:22:25;;;;;;;17.10;15.40;;;17.40;89.30;;;;;;5120213;28;20470;-75
2021/06/07 04:24:51;;;;;;;18.20;16.60;;;17.50;89.60;;;;;;5120623;28;20446;-75
2021/06/07 04:27:17;;;;;;;16.80;15.33;;;17.50;89.90;;;;;;5120612;28;20461;-74
2021/06/07 04:29:44;;;;;;;17.30;15.57;;;17.50;90.00;;;;;;5120287;28;20439;-75
2021/06/07 04:32:11;;;;;;;19.30;17.40;;;17.50;90.10;;;;;;5120856;28;20462;-77
2021/06/07 04:34:38;;;;;;;18.53;16.83;;;17.50;90.20;;;;;;5121169;28;20446;-77
2021/06/07 04:37:05;;;;;;;17.80;16.10;;;17.50;90.30;;;;;;5120514;28;20482;-77
2021/06/07 04:39:31;;;;;;;17.17;15.37;;;17.50;90.40;;;;;;5120659;28;20442;-76
2021/06/07 04:41:58;;;;;;;19.67;17.80;;;17.50;90.60;;;;;;5120448;28;20466;-77
2021/06/07 04:44:24;;;;;;;19.40;17.50;;;17.40;90.70;;;;;;5120437;28;20561;-77
2021/06/07 04:46:50;;;;;;;18.23;16.63;;;17.40;90.80;;;;;;5120490;28;20445;-78
2021/06/07 04:49:18;;;;;;;19.67;17.80;;;17.40;90.80;;;;;;5120604;28;20443;-77
2021/06/07 04:51:44;;;;;;;18.87;16.83;;;17.40;90.90;;;;;;5120387;28;20470;-76
2021/06/07 04:54:11;;;;;;;21.87;17.50;;;17.50;91.00;;;;;;5120374;28;20473;-76
2021/06/07 04:56:38;;;;;;;18.60;17.00;;;17.50;91.00;;;;;;5120170;28;20528;-76
2021/06/07 04:59:04;;;;;;;17.80;16.20;;;17.50;91.00;;;;;;5120273;28;20451;-76
2021/06/07 05:01:31;;;;;;;19.43;17.60;;;17.50;90.90;;;;;;5119882;28;20462;-76
2021/06/07 05:03:57;;;;;;;17.87;16.07;;;17.50;91.00;;;;;;5120290;28;20427;-76
2021/06/07 05:06:25;;;;;;;18.10;16.37;;;17.50;91.00;;;;;;5120161;28;20442;-76
2021/06/07 05:08:51;;;;;;;19.30;17.20;;;17.50;91.00;;;;;;5120177;28;20504;-76
2021/06/07 05:11:17;;;;;;;19.87;17.93;;;17.50;91.00;;;;;;5120048;28;20442;-76
2021/06/07 05:13:43;;;;;;;19.70;17.73;;;17.50;91.10;;;;;;5120217;28;20434;-76
2021/06/07 05:16:10;;;;;;;23.40;21.10;;;17.50;91.30;;;;;;5119769;28;20482;-76
2021/06/07 05:18:37;;;;;;;22.40;20.40;;;17.60;91.60;;;;;;5117658;28;20546;-75
2021/06/07 05:21:03;;;;;;;22.03;19.80;;;17.60;91.70;;;;;;5117480;28;20427;-76
2021/06/07 05:23:31;;;;;;;22.23;20.03;;;17.60;91.70;;;;;;5116447;28;20466;-76
2021/06/07 05:25:57;;;;;;;24.00;21.60;;;17.70;91.90;;;;;;5116809;28;20439;-76
2021/06/07 05:28:24;;;;;;;23.40;20.87;;;17.70;91.80;;;;;;5116710;28;20499;-76
2021/06/07 05:30:52;;;;;;;22.03;19.40;;;17.80;91.90;;;;;;5116702;28;20456;-76
2021/06/07 05:33:18;;;;;;;23.60;21.03;;;17.90;91.80;;;;;;5116251;28;20467;-76
2021/06/07 05:35:47;;;;;;;23.80;21.30;;;17.90;91.80;;;;;;5116500;28;20449;-75
2021/06/07 05:38:15;;;;;;;24.77;22.07;;;18.10;91.90;;;;;;5116514;28;20439;-76
2021/06/07 05:40:43;;;;;;;25.83;23.03;;;18.20;91.60;;;;;;5116544;28;20447;-76
2021/06/07 05:43:10;;;;;;;28.70;25.23;;;18.20;91.50;;;;;;5116078;28;20995;-76
2021/06/07 05:45:37;;;;;;;30.47;23.90;;;18.30;91.50;;;;;;5116425;28;20455;-76
2021/06/07 05:48:03;;;;;;;28.63;25.60;;;18.40;91.50;;;;;;5116417;28;20439;-76
2021/06/07 05:50:34;;;;;;;27.50;24.57;;;18.50;91.30;;;;;;5116322;28;20450;-75
2021/06/07 05:53:00;;;;;;;26.33;22.63;;;18.60;91.20;;;;;;5116235;28;20467;-77
2021/06/07 05:55:29;;;;;;;29.77;24.10;;;18.70;91.00;;;;;;5115967;28;20815;-77
2021/06/07 05:57:59;;;;;;;28.10;25.23;;;18.70;90.90;;;;;;5115783;28;20470;-77
2021/06/07 06:00:27;;;;;;;29.27;25.03;;;18.80;90.80;;;;;;5116160;28;20495;-77
2021/06/07 06:02:54;;;;;;;31.13;26.37;;;18.80;90.20;;;;;;5115992;28;20470;-77
2021/06/07 06:05:20;;;;;;;26.87;24.03;;;18.80;90.40;;;;;;5115767;28;20435;-77
2021/06/07 06:07:47;;;;;;;31.23;26.00;;;18.80;90.50;;;;;;5116030;28;20430;-76
2021/06/07 06:10:14;;;;;;;27.93;23.40;;;18.80;90.30;;;;;;5115945;28;20802;-77
2021/06/07 06:12:41;;;;;;;24.30;22.00;;;18.90;90.20;;;;;;5115873;28;20463;-77
2021/06/07 06:15:10;;;;;;;26.97;24.17;;;18.90;89.80;;;;;;5115613;28;20458;-77
2021/06/07 06:17:37;;;;;;;25.93;22.93;;;18.90;89.90;;;;;;5115691;28;20474;-76
2021/06/07 06:20:05;;;;;;;24.83;22.27;;;18.90;89.80;;;;;;5115821;28;20785;-76
2021/06/07 06:22:32;;;;;;;25.53;22.93;;;18.90;90.00;;;;;;5115615;28;20481;-77
2021/06/07 06:24:59;;;;;;;26.93;24.23;;;18.90;90.00;;;;;;5115667;28;20492;-77
2021/06/07 06:27:25;;;;;;;27.13;24.23;;;18.90;89.60;;;;;;5115592;28;20423;-77
2021/06/07 06:29:51;;;;;;;28.00;25.10;;;19.00;90.00;;;;;;5114524;28;20434;-75
2021/06/07 06:32:19;;;;;;;30.50;26.10;;;19.00;89.80;;;;;;5115412;28;20470;-77
2021/06/07 06:34:47;;;;;;;35.10;30.30;;;19.10;89.50;;;;;;5115488;28;20458;-75
2021/06/07 06:37:14;;;;;;;37.07;31.00;;;19.20;89.10;;;;;;5115497;28;20486;-75
2021/06/07 06:39:40;;;;;;;38.40;32.67;;;19.30;88.90;;;;;;5115580;28;20431;-77
2021/06/07 06:42:08;;;;;;;44.63;32.00;;;19.30;88.10;;;;;;5115337;28;20477;-77
2021/06/07 06:44:34;;;;;;;39.70;35.03;;;19.40;88.20;;;;;;5115286;28;20466;-75
2021/06/07 06:47:01;;;;;;;34.73;30.10;;;19.40;88.00;;;;;;5115215;28;20445;-76
2021/06/07 06:49:28;;;;;;;44.83;35.07;;;19.50;87.80;;;;;;5115114;28;20480;-75
2021/06/07 06:51:57;;;;;;;38.03;33.50;;;19.50;87.50;;;;;;5114974;28;20463;-75
2021/06/07 06:54:24;;;;;;;40.67;34.67;;;19.60;87.20;;;;;;5115068;28;20438;-75
2021/06/07 06:56:51;;;;;;;41.97;33.30;;;19.70;86.50;;;;;;5114928;28;20463;-75
2021/06/07 06:59:17;;;;;;;39.50;32.87;;;19.60;85.70;;;;;;5115856;28;20490;-77
2021/06/07 07:01:44;;;;;;;39.47;32.60;;;19.70;86.00;;;;;;5118334;28;20822;-76
2021/06/07 07:04:10;;;;;;;46.97;31.60;;;19.80;86.00;;;;;;5119190;28;20433;-75
2021/06/07 07:06:38;;;;;;;40.07;33.57;;;19.80;85.40;;;;;;5115197;28;20439;-77
2021/06/07 07:09:04;;;;;;;47.67;36.13;;;19.80;84.90;;;;;;5114860;28;20550;-76
2021/06/07 07:11:31;;;;;;;50.70;38.30;;;19.80;84.60;;;;;;5114763;28;20473;-76
2021/06/07 07:13:57;;;;;;;40.57;35.13;;;19.90;84.50;;;;;;5114486;28;20439;-76
2021/06/07 07:16:24;;;;;;;47.80;38.60;;;19.90;83.30;;;;;;5114336;28;20486;-76
2021/06/07 07:18:50;;;;;;;55.57;38.40;;;20.00;83.50;;;;;;5114730;28;20842;-76
2021/06/07 07:21:16;;;;;;;56.07;44.17;;;20.00;83.50;;;;;;5114586;28;20449;-76
2021/06/07 07:23:44;;;;;;;59.00;48.40;;;20.10;83.50;;;;;;5115031;28;20443;-76
2021/06/07 07:26:10;;;;;;;61.93;50.30;;;20.20;83.20;;;;;;5114884;28;20446;-76
2021/06/07 07:28:37;;;;;;;56.27;47.40;;;20.30;82.60;;;;;;5114639;28;20512;-77
2021/06/07 07:31:04;;;;;;;59.07;45.57;;;20.40;83.00;;;;;;5114930;28;20442;-77
2021/06/07 07:33:36;;;;;;;54.20;45.10;;;20.50;82.00;;;;;;5114877;28;20471;-77
2021/06/07 07:36:03;;;;;;;54.87;44.93;;;20.60;82.10;;;;;;5114591;28;20432;-77
2021/06/07 07:38:29;;;;;;;63.97;49.60;;;20.70;81.90;;;;;;5114245;28;20962;-77
2021/06/07 07:40:57;;;;;;;63.10;50.30;;;20.80;80.80;;;;;;5114116;28;20439;-77
2021/06/07 07:43:23;;;;;;;59.17;48.27;;;20.90;80.30;;;;;;5114363;28;20466;-77
2021/06/07 07:45:49;;;;;;;48.80;42.17;;;21.00;80.10;;;;;;5114482;28;20447;-77
2021/06/07 07:48:16;;;;;;;56.67;47.97;;;21.10;79.60;;;;;;5114030;28;20945;-77
2021/06/07 07:50:42;;;;;;;53.00;43.67;;;21.20;78.90;;;;;;5114221;28;20447;-78
2021/06/07 07:53:08;;;;;;;47.57;39.57;;;21.20;78.20;;;;;;5115424;28;20520;-78
2021/06/07 07:55:35;;;;;;;52.77;43.30;;;21.40;78.90;;;;;;5114976;28;20793;-77
2021/06/07 07:58:06;;;;;;;44.53;39.90;;;21.50;78.80;;;;;;5114353;28;20474;-78
2021/06/07 08:00:33;;;;;;;45.27;39.70;;;21.60;78.20;;;;;;5114214;28;20435;-77
2021/06/07 08:03:00;;;;;;;53.07;40.30;;;21.80;77.20;;;;;;5114369;28;20489;-77
2021/06/07 08:05:26;;;;;;;47.17;38.83;;;21.90;76.50;;;;;;5114157;28;20804;-77
2021/06/07 08:07:52;;;;;;;44.47;37.40;;;21.90;75.30;;;;;;5114275;28;20434;-76
2021/06/07 08:10:19;;;;;;;42.43;37.70;;;22.00;75.10;;;;;;5113998;28;20871;-77
2021/06/07 08:12:46;;;;;;;42.00;36.60;;;22.20;75.20;;;;;;5114084;28;20462;-78
2021/06/07 08:15:14;;;;;;;45.70;40.40;;;22.30;74.90;;;;;;5114149;28;20921;-77
2021/06/07 08:17:41;;;;;;;46.47;41.43;;;22.40;74.80;;;;;;5113650;28;20846;-77
2021/06/07 08:20:10;;;;;;;42.47;37.97;;;22.50;73.90;;;;;;5114091;28;20423;-79
2021/06/07 08:22:36;;;;;;;42.53;38.00;;;22.60;73.40;;;;;;5114893;28;20473;-79
2021/06/07 08:25:03;;;;;;;38.73;34.73;;;22.80;72.70;;;;;;5113928;28;20975;-78
2021/06/07 08:27:30;;;;;;;42.93;38.63;;;22.90;72.20;;;;;;5113821;28;20439;-78
2021/06/07 08:29:57;;;;;;;42.57;38.47;;;22.90;70.80;;;;;;5114305;28;20438;-78
2021/06/07 08:32:24;;;;;;;43.30;39.10;;;23.00;70.40;;;;;;5114284;28;20827;-78
2021/06/07 08:34:51;;;;;;;41.93;37.83;;;23.20;70.40;;;;;;5114320;28;20439;-78
2021/06/07 08:37:17;;;;;;;41.30;37.17;;;23.30;70.00;;;;;;5114103;28;20508;-78
2021/06/07 08:39:43;;;;;;;41.47;37.50;;;23.40;69.60;;;;;;5114183;28;20449;-78
2021/06/07 08:42:11;;;;;;;41.83;37.87;;;23.50;68.80;;;;;;5114188;28;20470;-78
2021/06/07 08:44:38;;;;;;;42.70;38.50;;;23.50;68.20;;;;;;5114082;28;20438;-78
2021/06/07 08:47:04;;;;;;;40.17;36.37;;;23.50;68.60;;;;;;5113770;28;20932;-78
2021/06/07 08:49:32;;;;;;;40.90;36.77;;;23.60;68.30;;;;;;5113855;28;20451;-77
2021/06/07 08:51:58;;;;;;;38.33;34.67;;;23.60;67.50;;;;;;5114486;28;20463;-79
2021/06/07 08:54:25;;;;;;;39.00;35.07;;;23.60;67.50;;;;;;5117225;28;20427;-78
2021/06/07 08:56:51;;;;;;;41.60;37.70;;;23.70;66.90;;;;;;5118678;28;20479;-79
2021/06/07 08:59:18;;;;;;;40.20;36.10;;;23.70;66.70;;;;;;5118505;28;20427;-78
2021/06/07 09:01:45;;;;;;;36.50;33.20;;;23.70;67.40;;;;;;5118665;28;20463;-79
2021/06/07 09:04:13;;;;;;;39.40;35.50;;;23.80;66.90;;;;;;5118521;28;20955;-78
2021/06/07 09:06:44;;;;;;;35.47;32.07;;;23.80;66.00;;;;;;5118666;28;20427;-78
2021/06/07 09:09:12;;;;;;;35.07;31.67;;;23.80;65.70;;;;;;5118304;28;20440;-79
2021/06/07 09:11:47;;;;;;;38.50;34.90;;;24.00;65.60;;;;;;5117772;28;20838;-77
2021/06/07 09:14:22;;;;;;;36.40;32.93;;;24.10;65.60;;;;;;5117994;28;20470;-78
2021/06/07 09:16:49;;;;;;;32.30;29.10;;;24.10;66.10;;;;;;5117574;28;20543;-78
2021/06/07 09:19:20;;;;;;;36.47;32.77;;;24.30;66.20;;;;;;5117549;28;20442;-77
2021/06/07 09:21:48;;;;;;;35.10;31.77;;;24.80;66.30;;;;;;5117121;28;20466;-77
2021/06/07 09:24:14;;;;;;;36.57;32.80;;;25.30;63.70;;;;;;5118161;28;20446;-77
2021/06/07 09:26:43;;;;;;;37.67;33.93;;;25.40;59.60;;;;;;5117059;28;20423;-77
2021/06/07 09:29:14;;;;;;;39.77;35.67;;;25.30;59.80;;;;;;5116841;28;20474;-76
2021/06/07 09:31:42;;;;;;;35.63;32.13;;;25.20;62.60;;;;;;5117287;28;20470;-76
2021/06/07 09:34:11;;;;;;;37.63;33.97;;;25.20;62.50;;;;;;5117281;28;20427;-79
2021/06/07 09:36:38;;;;;;;36.67;32.70;;;25.40;60.20;;;;;;5117088;28;20834;-79
2021/06/07 09:39:09;;;;;;;30.53;27.60;;;25.40;59.90;;;;;;5116777;28;20919;-78
2021/06/07 09:41:59;;;;;;;33.40;30.20;;;25.70;59.70;;;;;;5116527;28;20474;-76
2021/06/07 09:44:32;;;;;;;31.97;28.87;;;26.30;59.30;;;;;;5116816;28;20435;-76
2021/06/07 09:47:14;;;;;;;32.33;29.23;;;27.00;58.00;;;;;;5116829;28;20428;-78
2021/06/07 09:49:43;;;;;;;32.17;29.17;;;27.60;56.80;;;;;;5116690;28;20484;-76
2021/06/07 09:52:11;;;;;;;31.20;28.37;;;27.90;54.70;;;;;;5116278;28;20470;-76
2021/06/07 09:54:39;;;;;;;35.40;32.20;;;28.10;54.30;;;;;;5116669;28;20504;-77
2021/06/07 09:57:06;;;;;;;36.53;33.00;;;28.20;53.40;;;;;;5116176;28;20462;-76
2021/06/07 09:59:34;;;;;;;38.27;34.90;;;28.00;51.90;;;;;;5116232;28;20461;-76
2021/06/07 10:02:02;;;;;;;32.33;29.43;;;27.70;52.20;;;;;;5116229;28;20466;-76
2021/06/07 10:04:49;;;;;;;33.27;30.37;;;27.60;52.60;;;;;;5115804;28;20472;-77
2021/06/07 10:07:15;;;;;;;34.17;31.07;;;27.40;52.80;;;;;;5116326;28;20427;-78
2021/06/07 10:10:14;;;;;;;30.63;27.90;;;27.20;53.10;;;;;;5116039;28;20959;-77
2021/06/07 10:12:42;;;;;;;36.90;33.57;;;27.00;53.50;;;;;;5116231;28;20463;-77
2021/06/07 10:15:10;;;;;;;32.93;29.90;;;26.80;54.30;;;;;;5116436;28;20469;-77
2021/06/07 10:17:36;;;;;;;39.13;35.37;;;26.50;54.90;;;;;;5116168;28;20482;-77
2021/06/07 10:22:49;;;;;;;33.70;30.67;;;26.10;56.40;;;;;;5116581;28;20441;-78
2021/06/07 10:25:16;;;;;;;34.50;31.40;;;25.90;57.00;;;;;;5116691;28;20458;-78
2021/06/07 10:27:42;;;;;;;34.47;31.17;;;25.70;57.60;;;;;;5116603;28;20438;-77
2021/06/07 10:30:20;;;;;;;30.67;27.80;;;25.70;57.10;;;;;;5116449;28;20959;-78
2021/06/07 10:32:47;;;;;;;29.33;26.63;;;25.80;57.70;;;;;;5116575;28;20975;-78
2021/06/07 10:35:27;;;;;;;32.20;29.30;;;26.00;57.50;;;;;;5116834;28;20450;-78
2021/06/07 10:38:04;;;;;;;31.97;29.27;;;26.10;56.30;;;;;;5116749;28;20466;-78
2021/06/07 10:40:32;;;;;;;30.63;27.73;;;26.20;56.10;;;;;;5116456;28;20430;-78
2021/06/07 10:43:00;;;;;;;29.33;26.73;;;26.10;55.70;;;;;;5116361;28;20466;-79
2021/06/07 10:45:29;;;;;;;27.60;24.90;;;26.20;56.20;;;;;;5116589;28;20439;-79
2021/06/07 10:47:56;;;;;;;23.77;21.73;;;26.30;56.50;;;;;;5116631;28;20439;-78
2021/06/07 10:50:24;;;;;;;26.50;24.10;;;26.40;56.40;;;;;;5116221;28;20441;-78
2021/06/07 10:52:54;;;;;;;23.17;21.33;;;26.60;56.40;;;;;;5116258;28;20470;-77
2021/06/07 10:55:25;;;;;;;23.03;21.13;;;26.80;56.20;;;;;;5115968;28;20487;-77
2021/06/07 10:57:55;;;;;;;23.07;20.87;;;26.90;54.80;;;;;;5115763;28;21037;-78
2021/06/07 11:00:27;;;;;;;20.50;18.70;;;27.00;54.80;;;;;;5115641;28;20430;-77
2021/06/07 11:02:56;;;;;;;17.80;16.20;;;27.10;55.00;;;;;;5115220;28;20516;-75
2021/06/07 11:05:24;;;;;;;17.90;16.50;;;27.20;54.80;;;;;;5115751;28;20419;-76
2021/06/07 11:08:03;;;;;;;16.80;15.50;;;27.30;54.10;;;;;;5115112;28;20427;-75
2021/06/07 11:10:32;;;;;;;19.90;18.40;;;27.40;54.10;;;;;;5115659;28;20423;-76
2021/06/07 11:13:01;;;;;;;20.10;18.30;;;27.40;53.20;;;;;;5114863;28;20473;-78
2021/06/07 11:15:29;;;;;;;19.33;17.77;;;27.50;53.40;;;;;;5115088;28;20462;-78
2021/06/07 11:18:19;;;;;;;20.47;18.77;;;27.40;53.70;;;;;;5114871;28;20909;-78
2021/06/07 11:20:46;;;;;;;13.93;12.80;;;27.40;53.10;;;;;;5115678;28;20447;-77
2021/06/07 11:23:14;;;;;;;13.60;12.60;;;27.20;53.50;;;;;;5114940;28;20474;-77
2021/06/07 11:25:48;;;;;;;13.43;12.33;;;27.00;53.70;;;;;;5115153;28;20808;-77
2021/06/07 11:28:36;;;;;;;12.73;11.73;;;26.70;53.90;;;;;;5114819;28;20420;-77
2021/06/07 11:31:04;;;;;;;14.07;13.07;;;26.40;55.10;;;;;;5114994;28;20465;-77
2021/06/07 11:33:48;;;;;;;12.80;11.57;;;26.20;55.20;;;;;;5114580;28;20466;-76
2021/06/07 11:36:37;;;;;;;14.73;13.33;;;26.10;56.00;;;;;;5114124;28;20900;-75
2021/06/07 11:39:06;;;;;;;14.97;13.57;;;26.10;55.90;;;;;;5114296;28;20423;-76
2021/06/07 11:41:51;;;;;;;15.33;14.13;;;26.20;56.20;;;;;;5114490;28;20450;-77
2021/06/07 11:44:19;;;;;;;15.10;14.00;;;26.20;55.10;;;;;;5114584;28;20431;-78
2021/06/07 11:46:59;;;;;;;14.27;13.10;;;26.10;55.60;;;;;;5114367;28;20439;-76
2021/06/07 11:49:25;;;;;;;15.63;14.00;;;25.90;55.00;;;;;;5114426;28;20427;-77
2021/06/07 11:52:13;;;;;;;15.37;14.07;;;25.90;56.00;;;;;;5114598;28;20463;-78
2021/06/07 11:54:49;;;;;;;14.80;13.80;;;25.80;56.70;;;;;;5108619;28;20458;-78
2021/06/07 11:57:16;;;;;;;14.07;12.93;;;25.80;56.70;;;;;;5114474;28;20458;-78
2021/06/07 11:59:43;;;;;;;15.77;14.50;;;25.70;56.60;;;;;;5114403;28;20912;-77
2021/06/07 12:02:11;;;;;;;16.23;14.73;;;25.70;56.70;;;;;;5114341;28;20471;-76
2021/06/07 12:04:38;;;;;;;15.20;13.80;;;25.60;57.00;;;;;;5114689;28;20443;-76
2021/06/07 12:07:06;;;;;;;15.10;13.70;;;25.60;57.80;;;;;;5114124;28;20427;-76
2021/06/07 12:09:33;;;;;;;14.70;13.30;;;25.60;57.10;;;;;;5114222;28;20435;-78
2021/06/07 12:12:00;;;;;;;15.27;13.97;;;25.60;57.50;;;;;;5114462;28;20511;-77
2021/06/07 12:14:27;;;;;;;15.63;14.17;;;25.70;57.40;;;;;;5113943;28;20462;-76
2021/06/07 12:17:01;;;;;;;14.87;13.67;;;25.80;57.10;;;;;;5113516;28;20482;-77
2021/06/07 12:19:31;;;;;;;12.10;11.10;;;25.90;56.70;;;;;;5113927;28;20484;-77
2021/06/07 12:21:57;;;;;;;13.20;12.00;;;26.00;56.40;;;;;;5113512;28;20532;-76
2021/06/07 12:24:24;;;;;;;11.93;10.87;;;26.20;56.40;;;;;;5113571;28;20900;-77
2021/06/07 12:29:36;;;;;;;10.03;9.23;;;26.50;55.70;;;;;;5118693;28;20424;-78
2021/06/07 12:32:17;;;;;;;10.20;9.30;;;26.70;55.20;;;;;;5118825;28;20511;-78
2021/06/07 12:35:07;;;;;;;9.97;9.10;;;26.80;55.20;;;;;;5119046;28;20495;-78
2021/06/07 12:37:36;;;;;;;11.90;10.80;;;27.00;55.00;;;;;;5118636;28;20991;-78
2021/06/07 12:40:26;;;;;;;11.37;10.47;;;27.00;54.50;;;;;;5118731;28;20446;-78